sensor_id;sensor_type;location;lat;lon;timestamp;pressure;altitude;pressure_sealevel;temperature;humidity
47785;BME280;35233;55.686;37.848;2022-12-16T00:00:34;99471.22;;;7.70;54.35
47785;BME280;35233;55.686;37.848;2022-12-16T00:02:59;99453.84;;;7.63;54.02
47785;BME280;35233;55.686;37.848;2022-12-16T00:05:26;99476.47;;;7.70;53.79
47785;BME280;35233;55.686;37.848;2022-12-16T00:07:52;99473.91;;;7.69;54.00
47785;BME280;35233;55.686;37.848;2022-12-16T00:10:17;99464.25;;;7.69;54.34
47785;BME280;35233;55.686;37.848;2022-12-16T00:12:43;99479.22;;;7.66;54.75
47785;BME280;35233;55.686;37.848;2022-12-16T00:15:09;99461.72;;;7.63;53.85
47785;BME280;35233;55.686;37.848;2022-12-16T00:17:34;99464.34;;;7.63;54.45
47785;BME280;35233;55.686;37.848;2022-12-16T00:20:01;99464.34;;;7.63;54.50
47785;BME280;35233;55.686;37.848;2022-12-16T00:22:28;99453.13;;;7.55;54.56
47785;BME280;35233;55.686;37.848;2022-12-16T00:24:53;99451.16;;;7.65;54.34
47785;BME280;35233;55.686;37.848;2022-12-16T00:27:18;99446.94;;;7.59;54.31
47785;BME280;35233;55.686;37.848;2022-12-16T00:29:44;99448.66;;;7.60;54.69
47785;BME280;35233;55.686;37.848;2022-12-16T00:32:09;99445.13;;;7.61;53.95
47785;BME280;35233;55.686;37.848;2022-12-16T00:34:35;99446.03;;;7.59;54.39
47785;BME280;35233;55.686;37.848;2022-12-16T00:37:00;99444.31;;;7.58;54.25
47785;BME280;35233;55.686;37.848;2022-12-16T00:39:26;99439.91;;;7.58;54.56
47785;BME280;35233;55.686;37.848;2022-12-16T00:41:51;99432.13;;;7.54;54.84
47785;BME280;35233;55.686;37.848;2022-12-16T00:44:17;99441.66;;;7.59;54.65
47785;BME280;35233;55.686;37.848;2022-12-16T00:46:42;99445.13;;;7.61;54.64
47785;BME280;35233;55.686;37.848;2022-12-16T00:49:08;99449.56;;;7.58;54.49
47785;BME280;35233;55.686;37.848;2022-12-16T00:51:33;99448.72;;;7.56;54.52
47785;BME280;35233;55.686;37.848;2022-12-16T00:53:59;99436.50;;;7.53;54.76
47785;BME280;35233;55.686;37.848;2022-12-16T00:56:24;99429.59;;;7.49;54.73
47785;BME280;35233;55.686;37.848;2022-12-16T00:58:50;99434.84;;;7.49;55.10
47785;BME280;35233;55.686;37.848;2022-12-16T01:01:15;99429.53;;;7.52;54.58
47785;BME280;35233;55.686;37.848;2022-12-16T01:03:41;99426.16;;;7.44;54.91
47785;BME280;35233;55.686;37.848;2022-12-16T01:06:12;99432.28;;;7.46;54.82
47785;BME280;35233;55.686;37.848;2022-12-16T01:08:38;99441.81;;;7.52;54.48
47785;BME280;35233;55.686;37.848;2022-12-16T01:11:03;99433.06;;;7.49;55.09
47785;BME280;35233;55.686;37.848;2022-12-16T01:13:29;99430.50;;;7.46;55.07
47785;BME280;35233;55.686;37.848;2022-12-16T01:15:59;99440.22;;;7.41;54.76
47785;BME280;35233;55.686;37.848;2022-12-16T01:18:24;99450.63;;;7.47;54.79
47785;BME280;35233;55.686;37.848;2022-12-16T01:20:50;99440.22;;;7.43;54.64
47785;BME280;35233;55.686;37.848;2022-12-16T01:23:15;99435.88;;;7.42;54.84
47785;BME280;35233;55.686;37.848;2022-12-16T01:25:41;99448.94;;;7.45;54.92
47785;BME280;35233;55.686;37.848;2022-12-16T01:28:06;99449.81;;;7.45;55.12
47785;BME280;35233;55.686;37.848;2022-12-16T01:30:32;99454.16;;;7.48;54.79
47785;BME280;35233;55.686;37.848;2022-12-16T01:32:57;99439.31;;;7.44;54.75
47785;BME280;35233;55.686;37.848;2022-12-16T01:35:23;99458.56;;;7.44;55.22
47785;BME280;35233;55.686;37.848;2022-12-16T01:37:48;99450.63;;;7.47;54.83
47785;BME280;35233;55.686;37.848;2022-12-16T01:40:18;99431.50;;;7.41;55.03
47785;BME280;35233;55.686;37.848;2022-12-16T01:42:44;99442.91;;;7.38;55.30
47785;BME280;35233;55.686;37.848;2022-12-16T01:45:29;99459.47;;;7.45;55.30
47785;BME280;35233;55.686;37.848;2022-12-16T01:47:58;99438.56;;;7.39;55.01
47785;BME280;35233;55.686;37.848;2022-12-16T01:50:25;99453.34;;;7.43;54.93
47785;BME280;35233;55.686;37.848;2022-12-16T01:52:56;99455.06;;;7.45;55.11
47785;BME280;35233;55.686;37.848;2022-12-16T01:55:48;99444.56;;;7.44;55.14
47785;BME280;35233;55.686;37.848;2022-12-16T01:58:19;99447.97;;;7.51;54.81
47785;BME280;35233;55.686;37.848;2022-12-16T02:00:45;99456.84;;;7.45;54.81
47785;BME280;35233;55.686;37.848;2022-12-16T02:03:11;99448.97;;;7.43;55.29
47785;BME280;35233;55.686;37.848;2022-12-16T02:05:41;99445.53;;;7.40;55.20
47785;BME280;35233;55.686;37.848;2022-12-16T02:10:50;99442.97;;;7.37;55.52
47785;BME280;35233;55.686;37.848;2022-12-16T02:16:10;99455.94;;;7.46;54.96
47785;BME280;35233;55.686;37.848;2022-12-16T02:19:01;99452.44;;;7.44;55.51
47785;BME280;35233;55.686;37.848;2022-12-16T02:22:16;99440.22;;;7.43;55.24
47785;BME280;35233;55.686;37.848;2022-12-16T02:33:14;99459.47;;;7.45;55.08
47785;BME280;35233;55.686;37.848;2022-12-16T02:38:26;99450.69;;;7.44;55.59
47785;BME280;35233;55.686;37.848;2022-12-16T02:43:34;99454.22;;;7.43;55.33
47785;BME280;35233;55.686;37.848;2022-12-16T02:46:06;99459.47;;;7.45;55.03
47785;BME280;35233;55.686;37.848;2022-12-16T02:48:32;99460.28;;;7.47;55.38
47785;BME280;35233;55.686;37.848;2022-12-16T02:50:58;99455.94;;;7.46;54.99
47785;BME280;35233;55.686;37.848;2022-12-16T02:53:23;99437.66;;;7.40;55.50
47785;BME280;35233;55.686;37.848;2022-12-16T02:59:17;99452.44;;;7.44;55.46
47785;BME280;35233;55.686;37.848;2022-12-16T03:02:07;99456.84;;;7.45;55.57
47785;BME280;35233;55.686;37.848;2022-12-16T03:04:40;99456.84;;;7.43;55.67
47785;BME280;35233;55.686;37.848;2022-12-16T03:07:12;99455.94;;;7.44;55.65
47785;BME280;35233;55.686;37.848;2022-12-16T03:09:38;99457.66;;;7.47;55.05
47785;BME280;35233;55.686;37.848;2022-12-16T03:12:09;99460.31;;;7.45;55.68
47785;BME280;35233;55.686;37.848;2022-12-16T03:14:39;99456.00;;;7.43;55.40
47785;BME280;35233;55.686;37.848;2022-12-16T03:17:07;99453.31;;;7.44;55.78
47785;BME280;35233;55.686;37.848;2022-12-16T03:19:35;99448.88;;;7.48;55.48
47785;BME280;35233;55.686;37.848;2022-12-16T03:22:07;99459.47;;;7.45;55.44
47785;BME280;35233;55.686;37.848;2022-12-16T03:24:35;99464.66;;;7.48;55.84
47785;BME280;35233;55.686;37.848;2022-12-16T03:29:49;99464.66;;;7.48;56.13
47785;BME280;35233;55.686;37.848;2022-12-16T03:32:23;99471.63;;;7.49;56.14
47785;BME280;35233;55.686;37.848;2022-12-16T03:34:56;99468.16;;;7.47;55.75
47785;BME280;35233;55.686;37.848;2022-12-16T03:37:26;99470.78;;;7.48;55.76
47785;BME280;35233;55.686;37.848;2022-12-16T03:39:55;99471.69;;;7.46;55.95
47785;BME280;35233;55.686;37.848;2022-12-16T03:42:22;99476.91;;;7.47;56.18
47785;BME280;35233;55.686;37.848;2022-12-16T03:44:48;99474.41;;;7.41;56.23
47785;BME280;35233;55.686;37.848;2022-12-16T03:47:14;99478.78;;;7.41;55.79
47785;BME280;35233;55.686;37.848;2022-12-16T03:49:40;99494.38;;;7.50;55.81
47785;BME280;35233;55.686;37.848;2022-12-16T03:52:06;99499.69;;;7.48;56.15
47785;BME280;35233;55.686;37.848;2022-12-16T03:54:32;99473.59;;;7.39;56.15
47785;BME280;35233;55.686;37.848;2022-12-16T03:56:57;99493.53;;;7.49;56.19
47785;BME280;35233;55.686;37.848;2022-12-16T03:59:23;99483.06;;;7.46;56.26
47785;BME280;35233;55.686;37.848;2022-12-16T04:01:49;99504.91;;;7.50;56.29
47785;BME280;35233;55.686;37.848;2022-12-16T04:04:14;99503.25;;;7.46;56.07
47785;BME280;35233;55.686;37.848;2022-12-16T04:06:40;99517.19;;;7.49;56.11
47785;BME280;35233;55.686;37.848;2022-12-16T04:09:06;99516.31;;;7.51;56.29
47785;BME280;35233;55.686;37.848;2022-12-16T04:11:31;99519.81;;;7.51;56.34
47785;BME280;35233;55.686;37.848;2022-12-16T04:14:15;99521.56;;;7.49;56.23
47785;BME280;35233;55.686;37.848;2022-12-16T04:16:59;99529.41;;;7.52;56.03
47785;BME280;35233;55.686;37.848;2022-12-16T04:19:44;99528.56;;;7.50;56.02
47785;BME280;35233;55.686;37.848;2022-12-16T04:22:43;99539.97;;;7.49;56.01
47785;BME280;35233;55.686;37.848;2022-12-16T04:25:31;99544.38;;;7.47;56.17
47785;BME280;35233;55.686;37.848;2022-12-16T04:27:58;99546.22;;;7.43;56.06
47785;BME280;35233;55.686;37.848;2022-12-16T04:30:24;99548.84;;;7.43;56.30
47785;BME280;35233;55.686;37.848;2022-12-16T04:32:57;99553.16;;;7.46;56.34
47785;BME280;35233;55.686;37.848;2022-12-16T04:35:43;99559.34;;;7.45;56.40
47785;BME280;35233;55.686;37.848;2022-12-16T04:38:27;99555.00;;;7.41;56.30
47785;BME280;35233;55.686;37.848;2022-12-16T04:41:11;99566.38;;;7.43;56.60
47785;BME280;35233;55.686;37.848;2022-12-16T04:43:56;99573.28;;;7.47;56.13
47785;BME280;35233;55.686;37.848;2022-12-16T04:46:40;99569.84;;;7.45;56.83
47785;BME280;35233;55.686;37.848;2022-12-16T04:49:24;99582.09;;;7.46;56.13
47785;BME280;35233;55.686;37.848;2022-12-16T04:52:07;99557.72;;;7.36;55.99
47785;BME280;35233;55.686;37.848;2022-12-16T04:54:52;99576.84;;;7.44;56.67
47785;BME280;35233;55.686;37.848;2022-12-16T04:57:36;99586.44;;;7.47;56.37
47785;BME280;35233;55.686;37.848;2022-12-16T05:00:20;99590.81;;;7.48;56.21
47785;BME280;35233;55.686;37.848;2022-12-16T05:03:04;99591.13;;;9.81;59.34
47785;BME280;35233;55.686;37.848;2022-12-16T05:05:49;99587.53;;;13.31;51.84
47785;BME280;35233;55.686;37.848;2022-12-16T05:08:33;99585.34;;;14.24;48.72
47785;BME280;35233;55.686;37.848;2022-12-16T05:11:17;99590.56;;;14.85;46.95
47785;BME280;35233;55.686;37.848;2022-12-16T05:14:00;99597.84;;;15.18;45.89
47785;BME280;35233;55.686;37.848;2022-12-16T05:16:44;99593.22;;;15.40;45.09
47785;BME280;35233;55.686;37.848;2022-12-16T05:19:28;99593.75;;;15.66;44.16
47785;BME280;35233;55.686;37.848;2022-12-16T05:22:15;99607.91;;;15.86;43.78
47785;BME280;35233;55.686;37.848;2022-12-16T05:25:00;99612.75;;;15.95;43.45
47785;BME280;35233;55.686;37.848;2022-12-16T05:27:43;99616.34;;;16.11;43.41
47785;BME280;35233;55.686;37.848;2022-12-16T05:30:27;99612.28;;;16.21;42.67
47785;BME280;35233;55.686;37.848;2022-12-16T05:33:11;99623.69;;;16.41;42.20
47785;BME280;35233;55.686;37.848;2022-12-16T05:35:55;99614.53;;;16.46;41.74
47785;BME280;35233;55.686;37.848;2022-12-16T05:38:39;99628.03;;;16.59;41.18
47785;BME280;35233;55.686;37.848;2022-12-16T05:41:23;99633.06;;;16.65;40.73
47785;BME280;35233;55.686;37.848;2022-12-16T05:44:07;99642.22;;;16.77;40.19
47785;BME280;35233;55.686;37.848;2022-12-16T05:46:50;99650.00;;;16.82;40.08
47785;BME280;35233;55.686;37.848;2022-12-16T05:49:34;99646.03;;;16.89;40.13
47785;BME280;35233;55.686;37.848;2022-12-16T05:52:19;99653.81;;;16.93;40.14
47785;BME280;35233;55.686;37.848;2022-12-16T05:55:03;99651.72;;;16.98;40.08
47785;BME280;35233;55.686;37.848;2022-12-16T05:57:49;99651.94;;;17.11;39.74
47785;BME280;35233;55.686;37.848;2022-12-16T06:00:33;99672.16;;;17.15;39.50
47785;BME280;35233;55.686;37.848;2022-12-16T06:03:25;99670.97;;;17.21;39.10
47785;BME280;35233;55.686;37.848;2022-12-16T06:06:09;99674.31;;;17.25;39.00
47785;BME280;35233;55.686;37.848;2022-12-16T06:08:53;99687.34;;;17.31;38.98
47785;BME280;35233;55.686;37.848;2022-12-16T06:11:37;99689.84;;;17.34;38.83
47785;BME280;35233;55.686;37.848;2022-12-16T06:14:21;99695.03;;;17.37;38.72
47785;BME280;35233;55.686;37.848;2022-12-16T06:17:05;99687.25;;;17.32;38.77
47785;BME280;35233;55.686;37.848;2022-12-16T06:19:49;99698.09;;;17.45;38.46
47785;BME280;35233;55.686;37.848;2022-12-16T06:22:33;99700.00;;;17.43;38.41
47785;BME280;35233;55.686;37.848;2022-12-16T06:25:17;99717.34;;;17.52;38.12
47785;BME280;35233;55.686;37.848;2022-12-16T06:28:01;99709.16;;;17.55;38.26
47785;BME280;35233;55.686;37.848;2022-12-16T06:30:45;99719.66;;;17.58;38.08
47785;BME280;35233;55.686;37.848;2022-12-16T06:33:29;99737.41;;;17.59;38.01
47785;BME280;35233;55.686;37.848;2022-12-16T06:36:13;99740.75;;;17.62;37.86
47785;BME280;35233;55.686;37.848;2022-12-16T06:38:57;99752.22;;;17.64;38.02
47785;BME280;35233;55.686;37.848;2022-12-16T06:41:41;99758.09;;;17.71;37.51
47785;BME280;35233;55.686;37.848;2022-12-16T06:44:25;99770.19;;;17.78;37.18
47785;BME280;35233;55.686;37.848;2022-12-16T06:47:09;99764.88;;;17.77;37.39
47785;BME280;35233;55.686;37.848;2022-12-16T06:49:53;99785.38;;;17.78;37.28
47785;BME280;35233;55.686;37.848;2022-12-16T06:52:37;99803.13;;;17.79;37.51
47785;BME280;35233;55.686;37.848;2022-12-16T06:55:21;99804.53;;;17.86;38.05
47785;BME280;35233;55.686;37.848;2022-12-16T06:58:05;99815.03;;;17.89;38.57
47785;BME280;35233;55.686;37.848;2022-12-16T07:00:49;99811.41;;;17.90;38.87
47785;BME280;35233;55.686;37.848;2022-12-16T07:03:33;99827.63;;;17.87;39.10
47785;BME280;35233;55.686;37.848;2022-12-16T07:06:17;99825.81;;;17.87;39.29
47785;BME280;35233;55.686;37.848;2022-12-16T07:09:02;99839.94;;;17.90;39.13
47785;BME280;35233;55.686;37.848;2022-12-16T07:11:46;99841.16;;;18.00;38.89
47785;BME280;35233;55.686;37.848;2022-12-16T07:14:30;99850.19;;;17.97;38.52
47785;BME280;35233;55.686;37.848;2022-12-16T07:17:13;99867.81;;;18.01;38.39
47785;BME280;35233;55.686;37.848;2022-12-16T07:19:58;99863.16;;;18.05;37.77
47785;BME280;35233;55.686;37.848;2022-12-16T07:22:45;99885.38;;;18.05;37.75
47785;BME280;35233;55.686;37.848;2022-12-16T07:25:29;99876.59;;;18.03;37.62
47785;BME280;35233;55.686;37.848;2022-12-16T07:28:14;99876.69;;;18.02;37.53
47785;BME280;35233;55.686;37.848;2022-12-16T07:30:58;99900.91;;;18.15;37.65
47785;BME280;35233;55.686;37.848;2022-12-16T07:33:42;99900.00;;;18.16;37.51
47785;BME280;35233;55.686;37.848;2022-12-16T07:36:26;99909.09;;;18.12;37.01
47785;BME280;35233;55.686;37.848;2022-12-16T07:39:10;99913.53;;;18.13;37.21
47785;BME280;35233;55.686;37.848;2022-12-16T07:41:54;99917.69;;;18.18;37.09
47785;BME280;35233;55.686;37.848;2022-12-16T07:44:38;99936.22;;;18.21;36.79
47785;BME280;35233;55.686;37.848;2022-12-16T07:47:21;99949.59;;;18.21;36.83
47785;BME280;35233;55.686;37.848;2022-12-16T07:50:06;99953.81;;;18.25;36.65
47785;BME280;35233;55.686;37.848;2022-12-16T07:52:58;99963.06;;;18.36;36.67
47785;BME280;35233;55.686;37.848;2022-12-16T07:55:42;99944.59;;;18.31;36.47
47785;BME280;35233;55.686;37.848;2022-12-16T07:58:27;99971.25;;;18.32;36.66
47785;BME280;35233;55.686;37.848;2022-12-16T08:01:11;99975.72;;;18.32;36.96
47785;BME280;35233;55.686;37.848;2022-12-16T08:03:55;99974.63;;;18.36;36.97
47785;BME280;35233;55.686;37.848;2022-12-16T08:06:39;99979.97;;;18.36;37.08
47785;BME280;35233;55.686;37.848;2022-12-16T08:09:23;99982.38;;;18.41;38.06
47785;BME280;35233;55.686;37.848;2022-12-16T08:12:06;99982.81;;;18.49;39.87
47785;BME280;35233;55.686;37.848;2022-12-16T08:14:50;99991.03;;;18.62;40.62
47785;BME280;35233;55.686;37.848;2022-12-16T08:17:34;99990.16;;;18.61;41.65
47785;BME280;35233;55.686;37.848;2022-12-16T08:20:19;99997.94;;;18.66;41.55
47785;BME280;35233;55.686;37.848;2022-12-16T08:23:02;99994.75;;;18.59;40.50
47785;BME280;35233;55.686;37.848;2022-12-16T08:25:46;100011.31;;;18.66;39.68
47785;BME280;35233;55.686;37.848;2022-12-16T08:28:31;100019.16;;;18.69;39.90
47785;BME280;35233;55.686;37.848;2022-12-16T08:31:15;100012.66;;;18.74;37.07
47785;BME280;35233;55.686;37.848;2022-12-16T08:33:59;100018.00;;;18.74;35.95
47785;BME280;35233;55.686;37.848;2022-12-16T08:36:43;100016.63;;;18.83;35.92
47785;BME280;35233;55.686;37.848;2022-12-16T08:39:27;100031.72;;;18.84;35.85
47785;BME280;35233;55.686;37.848;2022-12-16T08:42:11;100021.34;;;18.78;35.52
47785;BME280;35233;55.686;37.848;2022-12-16T08:44:54;100048.91;;;18.80;35.40
47785;BME280;35233;55.686;37.848;2022-12-16T08:47:38;100047.09;;;18.81;35.11
47785;BME280;35233;55.686;37.848;2022-12-16T08:50:22;100053.56;;;18.76;35.08
47785;BME280;35233;55.686;37.848;2022-12-16T08:53:07;100057.44;;;18.87;34.88
47785;BME280;35233;55.686;37.848;2022-12-16T08:55:53;100068.50;;;18.96;35.23
47785;BME280;35233;55.686;37.848;2022-12-16T08:58:37;100061.59;;;18.92;34.91
47785;BME280;35233;55.686;37.848;2022-12-16T09:01:21;100059.97;;;18.90;34.77
47785;BME280;35233;55.686;37.848;2022-12-16T09:04:05;100075.84;;;18.93;34.63
47785;BME280;35233;55.686;37.848;2022-12-16T09:06:49;100077.91;;;18.88;34.82
47785;BME280;35233;55.686;37.848;2022-12-16T09:09:33;100083.97;;;18.91;34.78
47785;BME280;35233;55.686;37.848;2022-12-16T09:12:16;100096.22;;;18.95;34.65
47785;BME280;35233;55.686;37.848;2022-12-16T09:15:01;100091.56;;;18.99;34.42
47785;BME280;35233;55.686;37.848;2022-12-16T09:17:45;100101.41;;;18.98;34.68
47785;BME280;35233;55.686;37.848;2022-12-16T09:20:29;100099.59;;;18.99;34.76
47785;BME280;35233;55.686;37.848;2022-12-16T09:23:12;100107.81;;;18.96;35.75
47785;BME280;35233;55.686;37.848;2022-12-16T09:25:57;100114.19;;;18.93;35.65
47785;BME280;35233;55.686;37.848;2022-12-16T09:28:41;100114.97;;;18.95;36.07
47785;BME280;35233;55.686;37.848;2022-12-16T09:31:25;100114.19;;;18.93;36.23
47785;BME280;35233;55.686;37.848;2022-12-16T09:34:09;100130.25;;;16.82;39.55
47785;BME280;35233;55.686;37.848;2022-12-16T09:36:53;100126.47;;;15.43;41.80
47785;BME280;35233;55.686;37.848;2022-12-16T09:39:37;100140.78;;;14.94;42.42
47785;BME280;35233;55.686;37.848;2022-12-16T09:52:03;100156.16;;;13.86;43.32
47785;BME280;35233;55.686;37.848;2022-12-16T09:54:49;100157.69;;;13.67;43.69
47785;BME280;35233;55.686;37.848;2022-12-16T09:57:34;100158.41;;;13.45;44.08
47785;BME280;35233;55.686;37.848;2022-12-16T10:00:24;100179.59;;;13.47;43.91
47785;BME280;35233;55.686;37.848;2022-12-16T10:03:21;100163.53;;;13.22;44.38
47785;BME280;35233;55.686;37.848;2022-12-16T10:15:30;100215.84;;;12.87;45.14
47785;BME280;35233;55.686;37.848;2022-12-16T10:18:36;100222.00;;;12.87;45.27
47785;BME280;35233;55.686;37.848;2022-12-16T10:21:29;100205.53;;;12.76;45.03
47785;BME280;35233;55.686;37.848;2022-12-16T10:24:19;100221.59;;;12.72;45.46
47785;BME280;35233;55.686;37.848;2022-12-16T10:27:16;100225.28;;;12.66;45.74
47785;BME280;35233;55.686;37.848;2022-12-16T10:30:11;100226.34;;;12.59;45.94
47785;BME280;35233;55.686;37.848;2022-12-16T10:32:56;100231.13;;;12.46;45.98
47785;BME280;35233;55.686;37.848;2022-12-16T10:35:52;100218.22;;;12.32;46.21
47785;BME280;35233;55.686;37.848;2022-12-16T10:38:42;100252.63;;;12.34;46.39
47785;BME280;35233;55.686;37.848;2022-12-16T10:41:32;100250.19;;;12.24;46.60
47785;BME280;35233;55.686;37.848;2022-12-16T10:47:26;100262.88;;;12.13;46.57
47785;BME280;35233;55.686;37.848;2022-12-16T10:50:13;100262.28;;;12.00;46.82
47785;BME280;35233;55.686;37.848;2022-12-16T10:53:14;100272.94;;;11.99;46.89
47785;BME280;35233;55.686;37.848;2022-12-16T10:56:17;100280.94;;;11.96;47.36
47785;BME280;35233;55.686;37.848;2022-12-16T10:59:06;100278.38;;;11.93;46.97
47785;BME280;35233;55.686;37.848;2022-12-16T11:02:03;100284.75;;;11.83;47.38
47785;BME280;35233;55.686;37.848;2022-12-16T11:04:48;100266.78;;;11.58;47.38
47785;BME280;35233;55.686;37.848;2022-12-16T11:07:52;100295.63;;;11.69;47.63
47785;BME280;35233;55.686;37.848;2022-12-16T11:10:41;100296.00;;;11.53;48.10
47785;BME280;35233;55.686;37.848;2022-12-16T11:13:30;100311.81;;;11.56;47.85
47785;BME280;35233;55.686;37.848;2022-12-16T11:16:22;100317.25;;;11.49;47.83
47785;BME280;35233;55.686;37.848;2022-12-16T11:19:21;100320.88;;;11.45;48.38
47785;BME280;35233;55.686;37.848;2022-12-16T11:22:09;100331.59;;;11.39;48.27
47785;BME280;35233;55.686;37.848;2022-12-16T11:25:12;100334.38;;;11.31;48.50
47785;BME280;35233;55.686;37.848;2022-12-16T11:28:04;100344.03;;;11.33;48.23
47785;BME280;35233;55.686;37.848;2022-12-16T11:30:53;100339.59;;;11.34;47.93
47785;BME280;35233;55.686;37.848;2022-12-16T11:33:39;100346.75;;;11.30;48.16
47785;BME280;35233;55.686;37.848;2022-12-16T11:36:23;100363.66;;;11.22;48.43
47785;BME280;35233;55.686;37.848;2022-12-16T11:39:18;100366.47;;;11.14;48.52
47785;BME280;35233;55.686;37.848;2022-12-16T11:42:03;100383.28;;;11.10;48.48
47785;BME280;35233;55.686;37.848;2022-12-16T11:44:54;100382.47;;;11.05;48.46
47785;BME280;35233;55.686;37.848;2022-12-16T11:50:28;100386.22;;;10.93;48.55
47785;BME280;35233;55.686;37.848;2022-12-16T11:56:16;100384.56;;;10.87;48.69
47785;BME280;35233;55.686;37.848;2022-12-16T11:59:32;100403.13;;;10.84;48.73
47785;BME280;35233;55.686;37.848;2022-12-16T12:02:24;100415.47;;;10.84;48.52
47785;BME280;35233;55.686;37.848;2022-12-16T12:05:13;100427.81;;;10.85;48.31
47785;BME280;35233;55.686;37.848;2022-12-16T12:08:27;100405.28;;;10.62;48.88
47785;BME280;35233;55.686;37.848;2022-12-16T12:17:45;100441.28;;;10.68;48.67
47785;BME280;35233;55.686;37.848;2022-12-16T12:20:41;100440.44;;;10.66;48.93
47785;BME280;35233;55.686;37.848;2022-12-16T12:26:47;100447.69;;;10.53;49.08
47785;BME280;35233;55.686;37.848;2022-12-16T12:32:51;100434.63;;;10.42;49.04
47785;BME280;35233;55.686;37.848;2022-12-16T12:35:59;100458.31;;;10.49;48.80
47785;BME280;35233;55.686;37.848;2022-12-16T12:39:07;100464.47;;;10.51;49.00
47785;BME280;35233;55.686;37.848;2022-12-16T12:45:17;100474.25;;;10.42;49.68
47785;BME280;35233;55.686;37.848;2022-12-16T12:54:52;100485.78;;;10.37;49.38
47785;BME280;35233;55.686;37.848;2022-12-16T12:57:42;100487.59;;;10.33;49.60
47785;BME280;35233;55.686;37.848;2022-12-16T13:00:29;100483.16;;;10.37;49.68
47785;BME280;35233;55.686;37.848;2022-12-16T13:03:23;100492.94;;;10.30;49.80
47785;BME280;35233;55.686;37.848;2022-12-16T13:06:13;100485.97;;;10.20;49.64
47785;BME280;35233;55.686;37.848;2022-12-16T13:08:58;100489.53;;;10.19;50.17
47785;BME280;35233;55.686;37.848;2022-12-16T13:15:03;100514.19;;;10.16;49.92
47785;BME280;35233;55.686;37.848;2022-12-16T13:20:50;100506.41;;;10.07;50.18
47785;BME280;35233;55.686;37.848;2022-12-16T13:23:39;100510.84;;;10.04;50.06
47785;BME280;35233;55.686;37.848;2022-12-16T13:26:26;100514.41;;;10.00;49.89
47785;BME280;35233;55.686;37.848;2022-12-16T13:32:15;100538.19;;;9.96;49.69
47785;BME280;35233;55.686;37.848;2022-12-16T13:35:13;100540.91;;;9.90;49.52
47785;BME280;35233;55.686;37.848;2022-12-16T13:38:05;100531.31;;;9.80;49.77
47785;BME280;35233;55.686;37.848;2022-12-16T13:41:02;100547.09;;;9.88;50.01
47785;BME280;35233;55.686;37.848;2022-12-16T13:43:52;100551.50;;;9.86;49.62
47785;BME280;35233;55.686;37.848;2022-12-16T13:46:42;100565.63;;;9.80;49.74
47785;BME280;35233;55.686;37.848;2022-12-16T13:49:41;100570.03;;;9.81;49.57
47785;BME280;35233;55.686;37.848;2022-12-16T13:52:47;100569.25;;;9.74;49.73
47785;BME280;35233;55.686;37.848;2022-12-16T13:55:41;100581.53;;;9.75;49.73
47785;BME280;35233;55.686;37.848;2022-12-16T13:58:37;100587.75;;;9.70;49.63
47785;BME280;35233;55.686;37.848;2022-12-16T14:01:32;100589.50;;;9.69;49.78
47785;BME280;35233;55.686;37.848;2022-12-16T14:04:19;100590.38;;;9.70;49.94
47785;BME280;35233;55.686;37.848;2022-12-16T14:07:15;100584.34;;;9.60;49.79
47785;BME280;35233;55.686;37.848;2022-12-16T14:10:00;100586.91;;;9.65;49.92
47785;BME280;35233;55.686;37.848;2022-12-16T14:22:04;100607.13;;;9.67;49.58
47785;BME280;35233;55.686;37.848;2022-12-16T14:24:53;100606.31;;;9.59;49.56
47785;BME280;35233;55.686;37.848;2022-12-16T14:27:38;100596.66;;;9.58;49.71
47785;BME280;35233;55.686;37.848;2022-12-16T14:30:25;100583.56;;;9.49;49.58
47785;BME280;35233;55.686;37.848;2022-12-16T14:33:26;100608.94;;;9.59;49.71
47785;BME280;35233;55.686;37.848;2022-12-16T14:36:21;100601.94;;;9.58;49.95
47785;BME280;35233;55.686;37.848;2022-12-16T14:39:28;100607.22;;;9.55;49.67
47785;BME280;35233;55.686;37.848;2022-12-16T14:42:23;100608.97;;;9.58;49.91
47785;BME280;35233;55.686;37.848;2022-12-16T14:48:36;100613.41;;;9.52;49.97
47785;BME280;35233;55.686;37.848;2022-12-16T14:57:02;100631.03;;;9.47;50.20
47785;BME280;35233;55.686;37.848;2022-12-16T14:59:46;100621.41;;;9.39;50.04
47785;BME280;35233;55.686;37.848;2022-12-16T15:02:36;100641.59;;;9.44;50.26
47785;BME280;35233;55.686;37.848;2022-12-16T15:05:27;100563.75;;;8.94;49.95
47785;BME280;35233;55.686;37.848;2022-12-16T15:08:16;100636.34;;;9.43;50.14
47785;BME280;35233;55.686;37.848;2022-12-16T15:11:03;100593.50;;;9.16;50.08
47785;BME280;35233;55.686;37.848;2022-12-16T15:13:53;100594.38;;;9.17;50.09
47785;BME280;35233;55.686;37.848;2022-12-16T15:16:41;100565.47;;;9.03;50.07
47785;BME280;35233;55.686;37.848;2022-12-16T15:19:25;100642.50;;;9.42;49.94
47785;BME280;35233;55.686;37.848;2022-12-16T15:22:14;100575.19;;;8.96;50.19
47785;BME280;35233;55.686;37.848;2022-12-16T15:25:01;100649.56;;;9.38;49.92
47785;BME280;35233;55.686;37.848;2022-12-16T15:27:54;100649.56;;;9.34;50.16
47785;BME280;35233;55.686;37.848;2022-12-16T15:30:44;100653.09;;;9.37;50.12
47785;BME280;35233;55.686;37.848;2022-12-16T15:33:36;100657.44;;;9.41;50.24
47785;BME280;35233;55.686;37.848;2022-12-16T15:36:31;100661.88;;;9.38;49.99
47785;BME280;35233;55.686;37.848;2022-12-16T15:39:51;100656.63;;;9.33;49.88
47785;BME280;35233;55.686;37.848;2022-12-16T15:42:35;100659.25;;;9.33;50.36
47785;BME280;35233;55.686;37.848;2022-12-16T15:45:30;100622.47;;;9.15;50.05
47785;BME280;35233;55.686;37.848;2022-12-16T15:48:28;100662.75;;;9.34;50.09
47785;BME280;35233;55.686;37.848;2022-12-16T15:51:31;100611.13;;;9.08;50.02